createdAt,value
2019-03-05T00:00:44.998Z,94.70
2019-03-05T00:03:14.267Z,94.70
2019-03-05T00:05:44.490Z,94.90
2019-03-05T00:08:13.560Z,95.10
2019-03-05T00:10:42.651Z,95.10
2019-03-05T00:13:12.012Z,95.00
2019-03-05T00:15:41.948Z,94.90
2019-03-05T00:18:11.227Z,94.70
2019-03-05T00:20:41.011Z,94.70
2019-03-05T00:23:10.193Z,94.80
2019-03-05T00:25:39.242Z,94.70
2019-03-05T00:28:36.127Z,94.70
2019-03-05T00:31:16.397Z,94.70
2019-03-05T00:34:28.793Z,94.70
2019-03-05T00:37:02.006Z,94.90
2019-03-05T00:39:58.221Z,94.90
2019-03-05T00:43:03.201Z,94.90
2019-03-05T00:45:59.104Z,95.00
2019-03-05T00:48:53.871Z,94.90
2019-03-05T00:51:37.937Z,94.90
2019-03-05T00:54:57.319Z,94.90
2019-03-05T00:58:13.498Z,94.80
2019-03-05T01:01:04.661Z,94.70
2019-03-05T01:04:15.402Z,94.30
2019-03-05T01:06:44.590Z,94.10
2019-03-05T01:09:17.551Z,94.30
2019-03-05T01:11:47.218Z,93.80
2019-03-05T01:14:16.445Z,93.80
2019-03-05T01:16:46.786Z,93.70
2019-03-05T01:19:15.894Z,93.70
2019-03-05T01:21:45.021Z,93.70
2019-03-05T01:24:14.286Z,93.80
2019-03-05T01:26:43.337Z,94.20
2019-03-05T01:29:12.608Z,94.40
2019-03-05T01:31:56.623Z,94.70
2019-03-05T01:34:44.804Z,95.00
2019-03-05T01:37:14.173Z,95.40
2019-03-05T01:40:01.380Z,95.70
2019-03-05T01:42:30.824Z,96.00
2019-03-05T01:45:00.247Z,96.40
2019-03-05T01:47:29.273Z,96.70
2019-03-05T01:49:58.316Z,96.90
2019-03-05T01:52:27.903Z,97.10
2019-03-05T01:54:57.038Z,97.30
2019-03-05T01:57:26.905Z,97.60
2019-03-05T01:59:56.338Z,97.80
2019-03-05T02:02:25.498Z,97.80
2019-03-05T02:04:55.087Z,98.00
2019-03-05T02:07:24.137Z,97.90
2019-03-05T02:09:53.265Z,98.00
2019-03-05T02:12:22.625Z,98.10
2019-03-05T02:14:52.000Z,98.00
2019-03-05T02:17:21.440Z,98.10
2019-03-05T02:19:50.999Z,98.20
2019-03-05T02:22:35.385Z,98.20
2019-03-05T02:25:31.087Z,98.30
2019-03-05T02:28:20.174Z,98.20
2019-03-05T02:31:23.997Z,98.30
2019-03-05T02:34:24.241Z,98.40
2019-03-05T02:37:33.260Z,98.40
2019-03-05T02:40:37.248Z,98.40
2019-03-05T02:43:28.484Z,98.40
2019-03-05T02:46:17.853Z,98.50
2019-03-05T02:49:21.438Z,98.60
2019-03-05T02:52:12.562Z,98.70
2019-03-05T02:55:01.165Z,98.60
2019-03-05T02:57:28.725Z,98.40
2019-03-05T02:59:58.052Z,98.50
2019-03-05T03:02:44.836Z,98.50
2019-03-05T03:05:31.926Z,98.40
2019-03-05T03:08:00.971Z,98.20
2019-03-05T03:10:30.436Z,98.20
2019-03-05T03:12:59.523Z,98.10
2019-03-05T03:15:28.579Z,98.00
2019-03-05T03:17:57.635Z,97.90
2019-03-05T03:20:26.711Z,97.70
2019-03-05T03:22:55.777Z,97.50
2019-03-05T03:25:25.142Z,97.50
2019-03-05T03:27:54.212Z,97.40
2019-03-05T03:30:24.479Z,97.40
2019-03-05T03:32:53.730Z,97.40
2019-03-05T03:35:22.865Z,97.20
2019-03-05T03:37:51.992Z,97.10
2019-03-05T03:40:24.946Z,97.00
2019-03-05T03:42:54.773Z,96.60
2019-03-05T03:45:25.274Z,96.80
2019-03-05T03:47:54.335Z,96.70
2019-03-05T03:50:23.454Z,97.00
2019-03-05T03:52:52.461Z,97.20
2019-03-05T03:55:22.303Z,97.60
2019-03-05T03:57:51.424Z,98.30
2019-03-05T04:00:22.408Z,99.10
2019-03-05T04:02:51.609Z,99.20
2019-03-05T04:05:21.029Z,99.60
2019-03-05T04:07:50.532Z,99.90
2019-03-05T04:10:19.655Z,99.90
2019-03-05T04:12:49.027Z,99.80
2019-03-05T04:15:19.722Z,99.80
2019-03-05T04:17:49.667Z,99.90
2019-03-05T04:20:36.547Z,99.60
2019-03-05T04:23:05.595Z,99.50
2019-03-05T04:25:34.702Z,99.50
2019-03-05T04:28:03.729Z,99.20
2019-03-05T04:30:33.068Z,98.50
2019-03-05T04:33:01.974Z,98.10
2019-03-05T04:35:31.023Z,98.10
2019-03-05T04:38:00.399Z,97.70
2019-03-05T04:40:29.409Z,97.50
2019-03-05T04:42:58.437Z,97.40
2019-03-05T04:45:49.664Z,97.40
2019-03-05T04:48:19.686Z,97.70
2019-03-05T04:51:03.921Z,97.50
2019-03-05T04:53:33.578Z,97.50
2019-03-05T04:56:02.631Z,97.80
2019-03-05T04:58:31.567Z,97.40
2019-03-05T05:01:00.542Z,97.20
2019-03-05T05:03:29.559Z,97.10
2019-03-05T05:05:58.853Z,97.10
2019-03-05T05:08:27.938Z,96.80
2019-03-05T05:10:57.429Z,96.80
2019-03-05T05:13:26.749Z,96.90
2019-03-05T05:15:55.963Z,96.70
2019-03-05T05:18:26.027Z,96.80
2019-03-05T05:20:55.974Z,96.80
2019-03-05T05:23:25.042Z,97.20
2019-03-05T05:25:54.247Z,97.40
2019-03-05T05:28:23.340Z,97.40
2019-03-05T05:30:52.375Z,97.50
2019-03-05T05:33:21.435Z,97.60
2019-03-05T05:35:50.458Z,97.50
2019-03-05T05:38:19.516Z,97.20
2019-03-05T05:40:48.610Z,97.50
2019-03-05T05:43:20.493Z,97.20
2019-03-05T05:45:50.786Z,97.30
2019-03-05T05:48:20.231Z,97.20
2019-03-05T05:50:49.604Z,97.20
2019-03-05T05:53:19.007Z,97.10
2019-03-05T05:55:48.103Z,97.10
2019-03-05T05:58:17.277Z,97.20
2019-03-05T06:00:52.137Z,97.10
2019-03-05T06:03:21.199Z,97.00
2019-03-05T06:05:50.513Z,97.00
2019-03-05T06:08:19.594Z,97.00
2019-03-05T06:10:48.757Z,97.00
2019-03-05T06:13:18.247Z,97.10
2019-03-05T06:15:47.774Z,97.20
2019-03-05T06:18:16.791Z,97.10
2019-03-05T06:20:45.773Z,97.00
2019-03-05T06:23:15.048Z,97.10
2019-03-05T06:25:44.124Z,97.30
2019-03-05T06:28:13.217Z,97.30
2019-03-05T06:30:42.388Z,97.50
2019-03-05T06:33:11.434Z,98.10
2019-03-05T06:35:40.487Z,98.60
2019-03-05T06:38:09.510Z,99.20
2019-03-05T06:40:38.549Z,99.10
2019-03-05T06:43:07.532Z,99.90
2019-03-05T06:45:36.867Z,99.90
2019-03-05T06:48:05.863Z,99.90
2019-03-05T06:50:34.889Z,99.90
2019-03-05T06:53:04.543Z,99.90
2019-03-05T06:55:33.519Z,99.90
2019-03-05T06:58:02.842Z,99.90
2019-03-05T07:00:33.577Z,99.90
2019-03-05T07:03:02.674Z,99.90
2019-03-05T07:06:07.775Z,99.90
2019-03-05T07:08:39.245Z,99.90
2019-03-05T07:11:46.271Z,99.90
2019-03-05T07:14:20.639Z,99.90
2019-03-05T07:16:59.563Z,99.90
2019-03-05T07:19:37.023Z,99.90
2019-03-05T07:22:30.514Z,99.90
2019-03-05T07:24:59.995Z,99.90
2019-03-05T07:27:40.196Z,99.90
2019-03-05T07:30:16.858Z,99.90
2019-03-05T07:32:45.897Z,99.90
2019-03-05T07:35:18.316Z,99.90
2019-03-05T07:37:47.447Z,99.90
2019-03-05T07:40:16.476Z,99.90
2019-03-05T07:42:45.553Z,99.90
2019-03-05T07:45:15.242Z,99.90
2019-03-05T07:47:44.368Z,99.90
2019-03-05T07:50:14.006Z,99.90
2019-03-05T07:52:43.709Z,99.90
2019-03-05T07:55:15.601Z,99.90
2019-03-05T07:57:45.985Z,99.90
2019-03-05T08:00:18.436Z,99.90
2019-03-05T08:02:48.070Z,99.90
2019-03-05T08:05:18.501Z,99.90
2019-03-05T08:07:48.210Z,99.90
2019-03-05T08:10:23.650Z,99.90
2019-03-05T08:13:30.048Z,99.90
2019-03-05T08:16:30.073Z,99.90
2019-03-05T08:18:59.700Z,99.90
2019-03-05T08:21:29.690Z,99.90
2019-03-05T08:23:59.451Z,99.80
2019-03-05T08:26:28.776Z,99.40
2019-03-05T08:28:58.159Z,99.20
2019-03-05T08:31:27.479Z,99.20
2019-03-05T08:33:58.112Z,98.60
2019-03-05T08:36:28.232Z,98.70
2019-03-05T08:39:00.339Z,98.60
2019-03-05T08:41:30.348Z,98.70
2019-03-05T08:44:00.333Z,98.20
2019-03-05T08:46:30.114Z,98.10
2019-03-05T08:48:59.678Z,98.40
2019-03-05T08:51:29.320Z,98.60
2019-03-05T08:53:59.152Z,98.70
2019-03-05T08:56:29.147Z,98.50
2019-03-05T08:58:58.686Z,98.80
2019-03-05T09:01:28.449Z,98.80
2019-03-05T09:03:58.295Z,99.20
2019-03-05T09:06:27.740Z,99.20
2019-03-05T09:09:00.307Z,99.20
2019-03-05T09:11:29.719Z,99.30
2019-03-05T09:13:59.837Z,99.80
2019-03-05T09:16:29.568Z,99.70
2019-03-05T09:18:59.415Z,99.90
2019-03-05T09:21:28.510Z,99.90
2019-03-05T09:23:57.876Z,99.90
2019-03-05T09:26:27.709Z,99.90
2019-03-05T09:28:57.490Z,99.90
2019-03-05T09:31:27.176Z,99.90
2019-03-05T09:33:57.207Z,99.90
2019-03-05T09:36:26.570Z,99.00
2019-03-05T09:38:56.006Z,99.10
2019-03-05T09:41:25.470Z,98.60
2019-03-05T09:43:54.799Z,97.80
2019-03-05T09:46:24.296Z,97.70
2019-03-05T09:48:54.472Z,97.50
2019-03-05T09:51:23.945Z,97.20
2019-03-05T09:53:53.241Z,97.50
2019-03-05T09:56:23.030Z,97.40
2019-03-05T09:58:52.568Z,97.20
2019-03-05T10:01:22.585Z,97.70
2019-03-05T10:03:52.597Z,97.70
2019-03-05T10:06:22.309Z,97.70
2019-03-05T10:08:51.748Z,97.60
2019-03-05T10:11:22.080Z,97.80
2019-03-05T10:13:51.283Z,97.30
2019-03-05T10:16:20.676Z,97.50
2019-03-05T10:18:50.399Z,97.80
2019-03-05T10:21:19.899Z,98.00
2019-03-05T10:23:49.925Z,98.10
2019-03-05T10:26:21.180Z,98.00
2019-03-05T10:28:50.650Z,97.90
2019-03-05T10:31:20.092Z,97.50
2019-03-05T10:33:49.600Z,97.20
2019-03-05T10:36:19.240Z,97.60
2019-03-05T10:38:56.801Z,97.50
2019-03-05T10:41:19.572Z,97.30
2019-03-05T10:43:48.972Z,97.20
2019-03-05T10:46:18.029Z,97.10
2019-03-05T10:48:46.912Z,96.30
2019-03-05T10:51:15.963Z,96.20
2019-03-05T10:53:45.358Z,95.90
2019-03-05T10:56:14.737Z,95.80
2019-03-05T10:58:43.854Z,95.80
2019-03-05T11:01:13.462Z,95.50
2019-03-05T11:03:42.506Z,95.20
2019-03-05T11:06:12.318Z,95.40
2019-03-05T11:08:41.978Z,95.40
2019-03-05T11:11:13.882Z,95.00
2019-03-05T11:13:41.867Z,95.00
2019-03-05T11:16:11.293Z,95.10
2019-03-05T11:18:40.658Z,95.10
2019-03-05T11:21:09.684Z,94.70
2019-03-05T11:23:39.019Z,94.10
2019-03-05T11:26:08.238Z,94.30
2019-03-05T11:28:37.521Z,94.30
2019-03-05T11:31:07.188Z,94.40
2019-03-05T11:33:36.521Z,94.10
2019-03-05T11:36:06.145Z,94.40
2019-03-05T11:38:35.674Z,93.90
2019-03-05T11:41:05.081Z,93.90
2019-03-05T11:43:34.120Z,93.30
2019-03-05T11:46:04.705Z,92.60
2019-03-05T11:48:34.135Z,92.30
2019-03-05T11:51:03.830Z,92.50
2019-03-05T11:53:32.874Z,92.60
2019-03-05T11:56:01.933Z,92.40
2019-03-05T11:58:31.609Z,91.80
2019-03-05T12:01:10.482Z,92.00
2019-03-05T12:03:39.556Z,91.00
2019-03-05T12:06:08.647Z,91.10
2019-03-05T12:08:38.031Z,91.00
2019-03-05T12:11:07.089Z,90.90
2019-03-05T12:13:36.578Z,90.60
2019-03-05T12:16:12.035Z,90.60
2019-03-05T12:18:41.406Z,90.40
2019-03-05T12:21:10.434Z,90.10
2019-03-05T12:23:39.528Z,89.70
2019-03-05T12:26:08.884Z,90.00
2019-03-05T12:28:38.311Z,88.40
2019-03-05T12:31:07.467Z,89.10
2019-03-05T12:33:36.609Z,89.00
2019-03-05T12:36:05.680Z,89.70
2019-03-05T12:38:34.738Z,90.20
2019-03-05T12:41:04.171Z,90.60
2019-03-05T12:43:33.403Z,93.70
2019-03-05T12:46:02.429Z,95.40
2019-03-05T12:48:39.524Z,96.90
2019-03-05T12:51:02.221Z,97.10
2019-03-05T12:53:31.276Z,98.00
2019-03-05T12:56:00.347Z,96.70
2019-03-05T12:58:29.594Z,95.80
2019-03-05T13:00:58.938Z,95.00
2019-03-05T13:03:28.327Z,94.60
2019-03-05T13:05:57.641Z,93.70
2019-03-05T13:08:28.611Z,94.00
2019-03-05T13:10:57.740Z,93.00
2019-03-05T13:13:26.840Z,93.40
2019-03-05T13:15:56.473Z,93.30
2019-03-05T13:18:30.835Z,92.60
2019-03-05T13:20:57.654Z,92.70
2019-03-05T13:23:26.989Z,92.50
2019-03-05T13:25:56.057Z,91.70
2019-03-05T13:28:25.034Z,91.00
2019-03-05T13:30:54.345Z,90.80
2019-03-05T13:33:23.368Z,91.10
2019-03-05T13:35:52.737Z,91.00
2019-03-05T13:38:21.880Z,91.30
2019-03-05T13:40:50.915Z,91.20
2019-03-05T13:43:21.770Z,91.20
2019-03-05T13:45:50.993Z,91.60
2019-03-05T13:48:58.871Z,91.70
2019-03-05T13:52:02.969Z,91.20
2019-03-05T13:55:23.528Z,90.90
2019-03-05T13:58:31.609Z,91.10
2019-03-05T14:01:01.088Z,90.70
2019-03-05T14:03:44.196Z,90.10
2019-03-05T14:06:57.487Z,90.50
2019-03-05T14:09:24.997Z,90.40
2019-03-05T14:11:54.354Z,88.50
2019-03-05T14:14:30.841Z,86.90
2019-03-05T14:17:22.504Z,86.30
2019-03-05T14:19:52.309Z,84.90
2019-03-05T14:22:21.974Z,83.90
2019-03-05T14:25:01.508Z,84.10
2019-03-05T14:27:21.958Z,84.50
2019-03-05T14:29:50.959Z,84.10
2019-03-05T14:32:20.382Z,83.80
2019-03-05T14:34:59.340Z,83.70
2019-03-05T14:37:30.326Z,83.10
2019-03-05T14:40:22.243Z,82.80
2019-03-05T14:42:30.986Z,83.70
2019-03-05T14:45:00.290Z,83.90
2019-03-05T14:47:29.375Z,83.30
2019-03-05T14:49:58.713Z,82.80
2019-03-05T14:52:27.986Z,82.20
2019-03-05T14:54:57.382Z,81.70
2019-03-05T14:57:27.071Z,82.00
2019-03-05T14:59:56.340Z,82.80
2019-03-05T15:02:25.500Z,81.90
2019-03-05T15:04:54.896Z,82.40
2019-03-05T15:07:24.091Z,83.10
2019-03-05T15:09:53.072Z,82.80
2019-03-05T15:12:22.631Z,83.00
2019-03-05T15:14:51.844Z,83.00
2019-03-05T15:17:21.079Z,83.00
2019-03-05T15:19:50.223Z,82.10
2019-03-05T15:22:19.441Z,82.30
2019-03-05T15:24:48.630Z,82.00
2019-03-05T15:27:18.102Z,81.40
2019-03-05T15:29:47.162Z,81.40
2019-03-05T15:32:16.596Z,81.20
2019-03-05T15:34:45.805Z,82.10
2019-03-05T15:37:14.926Z,82.60
2019-03-05T15:39:43.954Z,82.50
2019-03-05T15:42:13.149Z,82.20
2019-03-05T15:44:42.399Z,82.30
2019-03-05T15:47:11.820Z,80.60
2019-03-05T15:49:40.950Z,81.10
2019-03-05T15:52:10.040Z,81.30
2019-03-05T15:54:39.405Z,81.90
2019-03-05T15:57:08.477Z,81.60
2019-03-05T15:59:37.576Z,81.90
2019-03-05T16:02:06.699Z,82.30
2019-03-05T16:04:39.682Z,82.70
2019-03-05T16:07:10.931Z,82.10
2019-03-05T16:09:40.600Z,82.40
2019-03-05T16:12:10.794Z,82.00
2019-03-05T16:14:40.008Z,81.60
2019-03-05T16:17:09.127Z,81.50
2019-03-05T16:19:38.145Z,81.20
2019-03-05T16:22:07.288Z,81.30
2019-03-05T16:24:37.485Z,81.50
2019-03-05T16:27:06.985Z,82.10
2019-03-05T16:29:36.522Z,82.20
2019-03-05T16:32:23.121Z,82.30
2019-03-05T16:35:14.203Z,82.50
2019-03-05T16:38:05.174Z,82.90
2019-03-05T16:40:53.551Z,83.00
2019-03-05T16:43:33.037Z,83.40
2019-03-05T16:46:26.927Z,83.40
2019-03-05T16:49:21.119Z,84.00
2019-03-05T16:51:59.924Z,84.40
2019-03-05T16:54:54.228Z,85.20
2019-03-05T16:57:45.621Z,85.50
2019-03-05T17:00:49.371Z,86.20
2019-03-05T17:03:36.480Z,86.50
2019-03-05T17:06:26.307Z,87.00
2019-03-05T17:09:07.971Z,87.40
2019-03-05T17:11:47.894Z,87.90
2019-03-05T17:14:17.213Z,87.90
2019-03-05T17:16:46.196Z,88.50
2019-03-05T17:19:18.457Z,89.10
2019-03-05T17:21:47.803Z,89.20
2019-03-05T17:24:17.223Z,89.50
2019-03-05T17:26:46.298Z,89.80
2019-03-05T17:29:15.312Z,90.10
2019-03-05T17:31:44.744Z,90.10
2019-03-05T17:34:13.705Z,90.30
2019-03-05T17:36:42.779Z,90.40
2019-03-05T17:39:19.861Z,90.50
2019-03-05T17:41:49.057Z,90.60
2019-03-05T17:44:18.168Z,90.60
2019-03-05T17:46:47.486Z,90.70
2019-03-05T17:49:19.978Z,90.90
2019-03-05T17:51:49.013Z,91.00
2019-03-05T17:54:18.436Z,91.10
2019-03-05T17:56:47.541Z,91.10
2019-03-05T17:59:17.038Z,91.30
2019-03-05T18:01:46.517Z,91.40
2019-03-05T18:04:15.747Z,91.80
2019-03-05T18:06:45.039Z,91.50
2019-03-05T18:09:14.441Z,92.10
2019-03-05T18:11:43.403Z,91.90
2019-03-05T18:14:12.477Z,92.00
2019-03-05T18:16:41.966Z,92.10
2019-03-05T18:19:11.104Z,92.30
2019-03-05T18:21:41.081Z,92.30
2019-03-05T18:24:10.164Z,92.50
2019-03-05T18:26:39.155Z,92.60
2019-03-05T18:29:08.193Z,92.70
2019-03-05T18:31:37.235Z,92.60
2019-03-05T18:34:06.465Z,92.80
2019-03-05T18:36:35.786Z,93.00
2019-03-05T18:39:05.855Z,93.00
2019-03-05T18:41:34.926Z,93.20
2019-03-05T18:44:05.457Z,93.10
2019-03-05T18:46:34.512Z,93.20
2019-03-05T18:49:03.616Z,93.20
2019-03-05T18:51:32.624Z,93.20
2019-03-05T18:54:02.199Z,93.20
2019-03-05T18:56:31.894Z,93.30
2019-03-05T18:59:00.977Z,93.30
2019-03-05T19:01:30.368Z,93.40
2019-03-05T19:03:59.347Z,93.40
2019-03-05T19:06:28.420Z,93.40
2019-03-05T19:08:57.839Z,93.50
2019-03-05T19:11:27.496Z,93.40
2019-03-05T19:13:56.810Z,93.50
2019-03-05T19:16:25.882Z,93.90
2019-03-05T19:18:54.908Z,93.60
2019-03-05T19:21:24.615Z,93.70
2019-03-05T19:23:53.880Z,93.70
2019-03-05T19:26:22.899Z,93.60
2019-03-05T19:28:51.927Z,93.80
2019-03-05T19:31:20.859Z,93.80
2019-03-05T19:33:50.119Z,93.90
2019-03-05T19:36:19.481Z,93.90
2019-03-05T19:38:50.354Z,93.90
2019-03-05T19:41:19.151Z,93.90
2019-03-05T19:43:48.150Z,93.90
2019-03-05T19:46:17.444Z,93.90
2019-03-05T19:48:46.499Z,94.00
2019-03-05T19:51:15.833Z,94.10
2019-03-05T19:53:45.050Z,94.20
2019-03-05T19:56:14.079Z,94.20
2019-03-05T19:58:43.181Z,94.20
2019-03-05T20:01:18.100Z,94.30
2019-03-05T20:03:47.386Z,94.30
2019-03-05T20:06:17.480Z,94.30
2019-03-05T20:08:46.824Z,94.20
2019-03-05T20:11:16.259Z,94.30
2019-03-05T20:13:45.257Z,94.30
2019-03-05T20:16:16.439Z,94.40
2019-03-05T20:18:45.514Z,94.40
2019-03-05T20:21:16.195Z,94.70
2019-03-05T20:23:45.808Z,94.70
2019-03-05T20:26:14.920Z,94.80
2019-03-05T20:28:44.712Z,94.80
2019-03-05T20:31:14.039Z,95.00
2019-03-05T20:33:43.172Z,95.00
2019-03-05T20:36:12.359Z,95.10
2019-03-05T20:38:41.413Z,95.10
2019-03-05T20:41:11.017Z,95.30
2019-03-05T20:43:40.241Z,95.40
2019-03-05T20:46:13.106Z,95.40
2019-03-05T20:48:45.184Z,95.60
2019-03-05T20:51:15.103Z,95.70
2019-03-05T20:53:44.178Z,95.70
2019-03-05T20:56:13.738Z,95.80
2019-03-05T20:58:42.813Z,96.20
2019-03-05T21:01:12.005Z,95.90
2019-03-05T21:03:41.056Z,96.00
2019-03-05T21:06:10.388Z,96.10
2019-03-05T21:08:39.596Z,96.20
2019-03-05T21:11:10.545Z,96.20
2019-03-05T21:13:39.911Z,96.30
2019-03-05T21:16:09.529Z,96.40
2019-03-05T21:18:39.062Z,96.50
2019-03-05T21:21:08.271Z,96.50
2019-03-05T21:23:37.328Z,96.60
2019-03-05T21:26:06.698Z,96.70
2019-03-05T21:28:35.972Z,96.80
2019-03-05T21:31:05.607Z,96.80
2019-03-05T21:33:34.624Z,96.90
2019-03-05T21:36:03.819Z,97.00
2019-03-05T21:38:32.838Z,97.00
2019-03-05T21:41:02.475Z,97.10
2019-03-05T21:43:32.536Z,97.10
2019-03-05T21:46:04.392Z,97.10
2019-03-05T21:48:33.673Z,97.20
2019-03-05T21:51:02.697Z,97.30
2019-03-05T21:53:32.003Z,97.40
2019-03-05T21:56:01.377Z,97.50
2019-03-05T21:58:31.292Z,97.60
2019-03-05T22:01:00.496Z,97.60
2019-03-05T22:03:29.562Z,97.80
2019-03-05T22:05:59.008Z,97.80
2019-03-05T22:08:28.586Z,97.90
2019-03-05T22:10:58.694Z,97.80
2019-03-05T22:13:28.329Z,97.80
2019-03-05T22:15:57.971Z,97.80
2019-03-05T22:18:29.649Z,97.70
2019-03-05T22:20:58.934Z,97.70
2019-03-05T22:23:28.312Z,97.80
2019-03-05T22:25:57.213Z,97.70
2019-03-05T22:28:26.233Z,97.70
2019-03-05T22:30:55.441Z,97.60
2019-03-05T22:33:24.523Z,97.50
2019-03-05T22:35:53.782Z,97.40
2019-03-05T22:38:22.766Z,97.30
2019-03-05T22:40:52.127Z,97.40
2019-03-05T22:43:21.123Z,97.40
2019-03-05T22:45:50.164Z,97.30
2019-03-05T22:48:19.965Z,97.30
2019-03-05T22:50:49.307Z,97.30
2019-03-05T22:53:18.565Z,97.30
2019-03-05T22:55:47.530Z,97.30
2019-03-05T22:58:16.825Z,97.30
2019-03-05T23:01:10.248Z,97.30
2019-03-05T23:03:42.368Z,97.30
2019-03-05T23:06:11.795Z,97.30
2019-03-05T23:08:41.103Z,97.30
2019-03-05T23:11:10.133Z,97.40
2019-03-05T23:13:40.601Z,97.50
2019-03-05T23:16:10.786Z,97.50
2019-03-05T23:18:39.848Z,97.50
2019-03-05T23:21:09.454Z,97.80
2019-03-05T23:23:38.752Z,97.50
2019-03-05T23:26:08.164Z,97.70
2019-03-05T23:28:38.428Z,97.70
2019-03-05T23:31:09.361Z,97.80
2019-03-05T23:33:38.508Z,97.90
2019-03-05T23:36:08.054Z,97.90
2019-03-05T23:38:37.055Z,97.90
2019-03-05T23:41:06.070Z,97.90
2019-03-05T23:43:35.663Z,97.90
2019-03-05T23:46:05.023Z,98.00
2019-03-05T23:48:34.198Z,98.30
2019-03-05T23:51:03.215Z,98.10
2019-03-05T23:53:32.457Z,98.00
2019-03-05T23:56:01.445Z,98.10
2019-03-05T23:58:31.129Z,98.10
